createdAt,value
2023-01-17T00:01:31.406Z,81.72
2023-01-17T00:03:59.590Z,82.16
2023-01-17T00:06:25.970Z,82.64
2023-01-17T00:08:52.360Z,81.95
2023-01-17T00:11:18.745Z,81.95
2023-01-17T00:13:45.106Z,81.72
2023-01-17T00:16:11.567Z,81.91
2023-01-17T00:18:37.958Z,81.69
2023-01-17T00:21:04.347Z,82.30
2023-01-17T00:23:30.716Z,82.62
2023-01-17T00:25:57.325Z,82.33
2023-01-17T00:28:23.754Z,82.00
2023-01-17T00:30:50.347Z,81.83
2023-01-17T00:33:16.738Z,82.42
2023-01-17T00:35:43.126Z,82.14
2023-01-17T00:38:09.512Z,82.20
2023-01-17T00:40:35.908Z,82.01
2023-01-17T00:43:02.277Z,82.01
2023-01-17T00:45:28.638Z,81.98
2023-01-17T00:47:56.898Z,82.56
2023-01-17T00:50:23.334Z,82.29
2023-01-17T00:52:49.686Z,82.01
2023-01-17T00:55:16.064Z,82.53
2023-01-17T00:57:43.407Z,82.49
2023-01-17T01:00:09.805Z,82.39
2023-01-17T01:02:36.500Z,82.33
2023-01-17T01:05:02.981Z,81.91
2023-01-17T01:07:29.544Z,82.49
2023-01-17T01:09:55.916Z,82.40
2023-01-17T01:12:22.313Z,81.97
2023-01-17T01:14:48.710Z,82.31
2023-01-17T01:17:15.103Z,82.00
2023-01-17T01:19:41.673Z,81.75
2023-01-17T01:22:08.036Z,81.91
2023-01-17T01:24:34.615Z,82.10
2023-01-17T01:27:01.178Z,82.14
2023-01-17T01:29:27.759Z,82.00
2023-01-17T01:31:54.203Z,81.96
2023-01-17T01:34:20.805Z,81.92
2023-01-17T01:36:47.432Z,81.74
2023-01-17T01:39:14.080Z,81.78
2023-01-17T01:41:40.460Z,81.54
2023-01-17T01:44:06.812Z,81.87
2023-01-17T01:46:33.190Z,81.14
2023-01-17T01:48:59.592Z,81.73
2023-01-17T01:51:26.206Z,81.35
2023-01-17T01:53:52.597Z,80.98
2023-01-17T01:56:19.189Z,82.11
2023-01-17T01:58:45.757Z,81.75
2023-01-17T02:01:12.201Z,81.74
2023-01-17T02:03:38.643Z,81.84
2023-01-17T02:06:05.041Z,81.63
2023-01-17T02:08:31.435Z,81.70
2023-01-17T02:10:57.819Z,81.46
2023-01-17T02:16:11.243Z,81.63
2023-01-17T02:18:37.824Z,81.55
2023-01-17T02:21:04.160Z,81.78
2023-01-17T02:23:30.718Z,81.47
2023-01-17T02:25:57.062Z,81.55
2023-01-17T02:28:23.394Z,80.97
2023-01-17T02:30:49.747Z,81.47
2023-01-17T02:33:16.097Z,82.25
2023-01-17T02:35:42.655Z,81.93
2023-01-17T02:38:09.196Z,81.55
2023-01-17T02:40:35.534Z,82.08
2023-01-17T02:43:01.875Z,81.18
2023-01-17T02:45:28.323Z,82.02
2023-01-17T02:47:54.705Z,82.18
2023-01-17T02:50:21.252Z,82.06
2023-01-17T02:52:47.596Z,82.08
2023-01-17T02:55:14.144Z,81.99
2023-01-17T02:57:40.479Z,81.90
2023-01-17T03:00:06.854Z,82.03
2023-01-17T03:02:33.309Z,82.31
2023-01-17T03:04:59.906Z,81.89
2023-01-17T03:07:26.456Z,81.75
2023-01-17T03:09:52.779Z,81.95
2023-01-17T03:12:19.108Z,81.55
2023-01-17T03:14:45.460Z,81.97
2023-01-17T03:17:11.790Z,81.65
2023-01-17T03:19:38.351Z,81.93
2023-01-17T03:22:04.686Z,82.40
2023-01-17T03:24:31.229Z,81.88
2023-01-17T03:26:57.809Z,81.90
2023-01-17T03:29:24.146Z,81.85
2023-01-17T03:31:50.691Z,82.22
2023-01-17T03:34:17.026Z,81.88
2023-01-17T03:36:43.366Z,81.79
2023-01-17T03:39:09.711Z,81.78
2023-01-17T03:41:36.277Z,81.43
2023-01-17T03:44:02.617Z,81.53
2023-01-17T03:46:29.158Z,81.76
2023-01-17T03:48:55.718Z,81.82
2023-01-17T03:51:22.058Z,81.04
2023-01-17T03:53:48.605Z,81.87
2023-01-17T03:56:14.934Z,81.35
2023-01-17T03:58:41.481Z,81.53
2023-01-17T04:01:07.897Z,81.82
2023-01-17T04:03:34.301Z,81.98
2023-01-17T04:06:00.638Z,81.73
2023-01-17T04:08:26.973Z,81.94
2023-01-17T04:10:53.312Z,81.55
2023-01-17T04:13:19.666Z,81.82
2023-01-17T04:15:46.211Z,81.82
2023-01-17T04:18:12.552Z,81.96
2023-01-17T04:20:38.885Z,81.97
2023-01-17T04:23:05.242Z,81.91
2023-01-17T04:25:31.582Z,81.74
2023-01-17T04:27:57.919Z,81.97
2023-01-17T04:30:24.252Z,82.33
2023-01-17T04:32:51.034Z,81.37
2023-01-17T04:35:17.632Z,81.84
2023-01-17T04:37:43.968Z,81.55
2023-01-17T04:40:10.311Z,82.03
2023-01-17T04:42:36.860Z,81.44
2023-01-17T04:45:03.213Z,81.89
2023-01-17T04:47:29.552Z,81.60
2023-01-17T04:49:55.883Z,81.76
2023-01-17T04:52:22.443Z,81.30
2023-01-17T04:54:48.772Z,81.69
2023-01-17T04:57:15.104Z,81.87
2023-01-17T04:59:41.449Z,81.55
2023-01-17T05:02:07.823Z,81.65
2023-01-17T05:04:34.196Z,81.42
2023-01-17T05:07:00.551Z,81.42
2023-01-17T05:09:27.098Z,82.02
2023-01-17T05:11:54.235Z,81.77
2023-01-17T05:14:20.561Z,81.40
2023-01-17T05:16:46.897Z,81.46
2023-01-17T05:19:13.958Z,81.51
2023-01-17T05:21:40.303Z,81.23
2023-01-17T05:24:06.867Z,81.02
2023-01-17T05:26:33.208Z,81.27
2023-01-17T05:28:59.766Z,81.63
2023-01-17T05:31:26.374Z,81.23
2023-01-17T05:33:52.772Z,81.10
2023-01-17T05:36:21.088Z,81.21
2023-01-17T05:38:47.575Z,81.02
2023-01-17T05:41:13.920Z,80.72
2023-01-17T05:43:40.259Z,80.98
2023-01-17T05:46:06.616Z,80.73
2023-01-17T05:48:33.202Z,81.59
2023-01-17T05:50:59.753Z,80.79
2023-01-17T05:53:26.085Z,80.78
2023-01-17T05:55:52.424Z,81.05
2023-01-17T05:58:19.017Z,81.50
2023-01-17T06:00:45.383Z,81.43
2023-01-17T06:03:11.736Z,80.66
2023-01-17T06:05:38.076Z,80.98
2023-01-17T06:08:04.412Z,80.82
2023-01-17T06:10:30.746Z,80.74
2023-01-17T06:12:57.075Z,80.25
2023-01-17T06:15:23.616Z,80.70
2023-01-17T06:17:49.948Z,80.91
2023-01-17T06:20:16.277Z,80.97
2023-01-17T06:22:42.611Z,80.63
2023-01-17T06:25:08.991Z,80.56
2023-01-17T06:27:35.336Z,80.48
2023-01-17T06:30:01.669Z,80.35
2023-01-17T06:32:28.011Z,80.47
2023-01-17T06:34:54.356Z,80.45
2023-01-17T06:37:20.685Z,80.55
2023-01-17T06:39:47.025Z,80.67
2023-01-17T06:42:13.573Z,80.45
2023-01-17T06:44:39.938Z,80.21
2023-01-17T06:47:06.282Z,80.53
2023-01-17T06:49:32.623Z,79.95
2023-01-17T06:51:58.979Z,80.35
2023-01-17T06:54:25.310Z,80.44
2023-01-17T06:56:51.648Z,80.61
2023-01-17T06:59:18.538Z,80.63
2023-01-17T07:01:44.925Z,80.19
2023-01-17T07:04:11.355Z,79.85
2023-01-17T07:06:37.744Z,80.27
2023-01-17T07:09:04.085Z,79.72
2023-01-17T07:11:30.654Z,80.23
2023-01-17T07:13:56.992Z,80.39
2023-01-17T07:16:23.349Z,80.18
2023-01-17T07:18:49.705Z,80.13
2023-01-17T07:21:16.269Z,80.18
2023-01-17T07:23:42.603Z,80.01
2023-01-17T07:26:09.164Z,80.23
2023-01-17T07:28:35.582Z,79.60
2023-01-17T07:31:01.945Z,80.00
2023-01-17T07:33:28.522Z,79.69
2023-01-17T07:35:55.062Z,79.78
2023-01-17T07:38:21.395Z,80.03
2023-01-17T07:40:47.736Z,79.64
2023-01-17T07:43:14.130Z,79.71
2023-01-17T07:45:40.529Z,79.95
2023-01-17T07:48:07.076Z,79.11
2023-01-17T07:50:33.410Z,80.07
2023-01-17T07:52:59.965Z,79.71
2023-01-17T07:55:26.303Z,79.52
2023-01-17T07:57:52.640Z,79.30
2023-01-17T08:00:18.984Z,79.66
2023-01-17T08:02:45.316Z,79.44
2023-01-17T08:05:11.656Z,79.51
2023-01-17T08:07:38.003Z,79.31
2023-01-17T08:10:04.364Z,79.78
2023-01-17T08:12:30.717Z,79.35
2023-01-17T08:14:57.070Z,79.49
2023-01-17T08:17:23.629Z,79.52
2023-01-17T08:19:50.181Z,79.43
2023-01-17T08:22:16.505Z,79.39
2023-01-17T08:24:42.830Z,79.59
2023-01-17T08:27:09.178Z,79.52
2023-01-17T08:29:35.744Z,79.79
2023-01-17T08:32:02.344Z,79.79
2023-01-17T08:34:28.685Z,79.48
2023-01-17T08:36:55.228Z,79.75
2023-01-17T08:39:21.599Z,79.80
2023-01-17T08:41:47.958Z,78.94
2023-01-17T08:44:14.299Z,79.56
2023-01-17T08:46:40.631Z,79.76
2023-01-17T08:49:06.957Z,79.93
2023-01-17T08:51:33.279Z,79.60
2023-01-17T08:53:59.861Z,79.92
2023-01-17T08:56:26.231Z,80.14
2023-01-17T08:58:52.581Z,79.85
2023-01-17T09:01:18.996Z,79.61
2023-01-17T09:03:45.403Z,79.74
2023-01-17T09:06:11.745Z,79.98
2023-01-17T09:08:38.359Z,80.08
2023-01-17T09:11:04.712Z,79.57
2023-01-17T09:13:31.045Z,79.72
2023-01-17T09:15:57.382Z,79.17
2023-01-17T09:18:23.716Z,79.93
2023-01-17T09:20:50.057Z,79.81
2023-01-17T09:23:16.395Z,79.34
2023-01-17T09:25:42.736Z,79.55
2023-01-17T09:28:09.067Z,79.73
2023-01-17T09:30:36.159Z,79.90
2023-01-17T09:33:02.504Z,80.10
2023-01-17T09:35:28.837Z,79.74
2023-01-17T09:37:57.195Z,79.93
2023-01-17T09:40:23.650Z,79.55
2023-01-17T09:42:49.985Z,80.08
2023-01-17T09:45:16.522Z,80.14
2023-01-17T09:47:42.867Z,79.71
2023-01-17T09:50:09.428Z,80.08
2023-01-17T09:52:35.776Z,79.75
2023-01-17T09:55:02.113Z,79.98
2023-01-17T09:57:28.710Z,79.96
2023-01-17T10:00:02.979Z,79.56
2023-01-17T10:02:30.179Z,79.98
2023-01-17T10:04:56.683Z,80.23
2023-01-17T10:07:23.058Z,80.16
2023-01-17T10:09:49.404Z,80.01
2023-01-17T10:12:15.738Z,80.72
2023-01-17T10:14:42.074Z,80.28
2023-01-17T10:17:08.406Z,80.13
2023-01-17T10:19:34.752Z,80.02
2023-01-17T10:22:01.087Z,80.63
2023-01-17T10:24:27.645Z,80.28
2023-01-17T10:26:54.032Z,80.30
2023-01-17T10:29:21.250Z,80.14
2023-01-17T10:31:47.683Z,80.55
2023-01-17T10:34:14.027Z,80.64
2023-01-17T10:36:40.368Z,80.90
2023-01-17T10:39:06.711Z,80.80
2023-01-17T10:41:33.065Z,80.90
2023-01-17T10:43:59.424Z,80.74
2023-01-17T10:46:25.967Z,80.79
2023-01-17T10:48:52.314Z,80.94
2023-01-17T10:51:18.900Z,80.55
2023-01-17T10:53:45.255Z,80.15
2023-01-17T10:56:11.634Z,80.57
2023-01-17T10:58:37.970Z,80.81
2023-01-17T11:01:04.363Z,80.74
2023-01-17T11:03:30.722Z,80.87
2023-01-17T11:05:57.049Z,80.94
2023-01-17T11:08:23.396Z,80.84
2023-01-17T11:10:49.977Z,80.29
2023-01-17T11:13:16.330Z,80.19
2023-01-17T11:15:42.904Z,81.15
2023-01-17T11:18:09.254Z,80.73
2023-01-17T11:20:35.615Z,81.37
2023-01-17T11:23:02.181Z,81.05
2023-01-17T11:25:28.515Z,81.50
2023-01-17T11:27:54.843Z,81.44
2023-01-17T11:30:21.198Z,81.02
2023-01-17T11:32:47.532Z,81.60
2023-01-17T11:35:13.867Z,80.89
2023-01-17T11:37:40.187Z,81.46
2023-01-17T11:40:06.544Z,81.19
2023-01-17T11:42:32.902Z,81.02
2023-01-17T11:44:59.245Z,80.62
2023-01-17T11:47:25.584Z,81.35
2023-01-17T11:49:51.923Z,81.17
2023-01-17T11:52:18.268Z,81.11
2023-01-17T11:54:44.598Z,80.87
2023-01-17T11:57:10.927Z,80.81
2023-01-17T11:59:37.327Z,80.76
2023-01-17T12:02:03.683Z,81.12
2023-01-17T12:04:30.240Z,81.10
2023-01-17T12:06:58.341Z,81.37
2023-01-17T12:09:25.139Z,81.17
2023-01-17T12:11:51.489Z,81.62
2023-01-17T12:14:17.864Z,81.58
2023-01-17T12:16:44.208Z,81.37
2023-01-17T12:19:10.543Z,81.58
2023-01-17T12:21:37.098Z,81.81
2023-01-17T12:24:03.433Z,81.32
2023-01-17T12:26:29.762Z,81.17
2023-01-17T12:28:56.110Z,81.29
2023-01-17T12:31:22.502Z,81.04
2023-01-17T12:33:48.862Z,81.30
2023-01-17T12:36:15.200Z,81.31
2023-01-17T12:38:41.552Z,80.97
2023-01-17T12:41:08.140Z,81.01
2023-01-17T12:43:34.737Z,80.79
2023-01-17T12:46:01.081Z,81.48
2023-01-17T12:48:27.411Z,80.22
2023-01-17T12:50:53.745Z,80.42
2023-01-17T12:53:20.085Z,79.83
2023-01-17T12:55:46.423Z,79.94
2023-01-17T12:58:12.751Z,79.94
2023-01-17T13:00:39.191Z,79.98
2023-01-17T13:03:05.582Z,80.23
2023-01-17T13:05:31.959Z,80.28
2023-01-17T13:07:58.290Z,80.93
2023-01-17T13:10:24.645Z,80.48
2023-01-17T13:12:50.976Z,79.88
2023-01-17T13:15:17.321Z,80.20
2023-01-17T13:17:43.663Z,80.40
2023-01-17T13:20:10.236Z,80.40
2023-01-17T13:22:36.626Z,80.36
2023-01-17T13:25:02.956Z,80.50
2023-01-17T13:27:29.289Z,80.54
2023-01-17T13:29:55.617Z,80.50
2023-01-17T13:32:21.958Z,80.76
2023-01-17T13:34:48.302Z,80.63
2023-01-17T13:37:14.854Z,80.73
2023-01-17T13:39:41.206Z,80.80
2023-01-17T13:42:07.552Z,80.74
2023-01-17T13:44:33.883Z,81.05
2023-01-17T13:47:00.222Z,80.97
2023-01-17T13:49:26.560Z,81.23
2023-01-17T13:51:52.907Z,80.74
2023-01-17T13:54:19.237Z,80.95
2023-01-17T13:56:45.574Z,81.38
2023-01-17T13:59:12.155Z,80.87
2023-01-17T14:01:38.745Z,80.52
2023-01-17T14:04:05.171Z,80.81
2023-01-17T14:06:31.512Z,80.72
2023-01-17T14:08:57.863Z,80.62
2023-01-17T14:11:24.309Z,80.51
2023-01-17T14:13:50.639Z,80.57
2023-01-17T14:16:17.008Z,80.62
2023-01-17T14:18:43.382Z,80.88
2023-01-17T14:21:09.703Z,80.70
2023-01-17T14:23:36.054Z,81.07
2023-01-17T14:26:02.391Z,80.82
2023-01-17T14:28:28.725Z,80.63
2023-01-17T14:30:55.060Z,80.87
2023-01-17T14:33:21.401Z,80.38
2023-01-17T14:35:47.736Z,81.90
2023-01-17T14:38:14.062Z,80.82
2023-01-17T14:40:40.360Z,81.68
2023-01-17T14:43:06.684Z,81.16
2023-01-17T14:45:33.130Z,81.03
2023-01-17T14:47:59.511Z,81.31
2023-01-17T14:50:25.878Z,81.46
2023-01-17T14:52:52.215Z,81.64
2023-01-17T14:55:18.551Z,81.14
2023-01-17T14:57:44.888Z,81.13
2023-01-17T15:00:11.247Z,81.00
2023-01-17T15:02:37.826Z,81.23
2023-01-17T15:05:04.262Z,80.99
2023-01-17T15:07:30.603Z,81.50
2023-01-17T15:09:56.946Z,81.57
2023-01-17T15:12:23.320Z,81.29
2023-01-17T15:14:49.664Z,81.34
2023-01-17T15:17:16.007Z,81.43
2023-01-17T15:19:42.352Z,82.09
2023-01-17T15:22:08.678Z,81.42
2023-01-17T15:24:35.006Z,80.91
2023-01-17T15:27:01.340Z,80.66
2023-01-17T15:29:27.693Z,80.91
2023-01-17T15:31:54.057Z,81.79
2023-01-17T15:34:20.610Z,80.68
2023-01-17T15:36:46.938Z,80.68
2023-01-17T15:39:13.271Z,80.64
2023-01-17T15:41:39.676Z,81.02
2023-01-17T15:44:06.075Z,80.96
2023-01-17T15:46:32.418Z,80.59
2023-01-17T15:48:58.764Z,80.74
2023-01-17T15:51:25.098Z,81.01
2023-01-17T15:53:51.439Z,80.42
2023-01-17T15:56:17.785Z,80.42
2023-01-17T15:58:44.119Z,80.71
2023-01-17T16:01:10.534Z,80.49
2023-01-17T16:03:36.928Z,80.44
2023-01-17T16:06:03.254Z,80.86
2023-01-17T16:08:29.580Z,80.52
2023-01-17T16:10:56.163Z,80.74
2023-01-17T16:13:22.505Z,80.46
2023-01-17T16:15:48.897Z,80.90
2023-01-17T16:18:15.255Z,80.82
2023-01-17T16:20:41.594Z,81.10
2023-01-17T16:23:07.952Z,80.78
2023-01-17T16:25:34.295Z,80.75
2023-01-17T16:28:01.716Z,80.98
2023-01-17T16:30:28.063Z,81.12
2023-01-17T16:32:54.732Z,81.07
2023-01-17T16:35:21.153Z,80.95
2023-01-17T16:37:47.508Z,81.09
2023-01-17T16:40:13.843Z,81.08
2023-01-17T16:42:40.184Z,81.08
2023-01-17T16:45:06.537Z,81.02
2023-01-17T16:47:32.867Z,80.66
2023-01-17T16:49:59.204Z,80.96
2023-01-17T16:52:25.877Z,80.89
2023-01-17T16:54:54.718Z,80.86
2023-01-17T16:57:21.057Z,80.89
2023-01-17T16:59:50.919Z,81.10
2023-01-17T17:02:17.464Z,80.99
2023-01-17T17:04:43.812Z,81.09
2023-01-17T17:07:10.160Z,80.99
2023-01-17T17:09:36.507Z,80.90
2023-01-17T17:12:02.850Z,80.94
2023-01-17T17:14:29.190Z,80.93
2023-01-17T17:16:55.767Z,81.01
2023-01-17T17:19:22.107Z,81.03
2023-01-17T17:21:48.445Z,81.17
2023-01-17T17:24:14.772Z,80.97
2023-01-17T17:26:41.119Z,80.93
2023-01-17T17:29:07.472Z,81.02
2023-01-17T17:31:33.794Z,80.98
2023-01-17T17:34:00.389Z,81.06
2023-01-17T17:36:26.742Z,80.74
2023-01-17T17:38:53.083Z,81.09
2023-01-17T17:41:19.468Z,81.42
2023-01-17T17:43:45.798Z,80.79
2023-01-17T17:46:12.416Z,80.63
2023-01-17T17:48:38.754Z,80.91
2023-01-17T17:51:05.140Z,81.02
2023-01-17T17:53:31.561Z,80.78
2023-01-17T17:55:57.886Z,81.36
2023-01-17T17:58:24.234Z,80.87
2023-01-17T18:00:50.597Z,80.95
2023-01-17T18:03:16.944Z,80.99
2023-01-17T18:05:43.280Z,81.19
2023-01-17T18:08:09.621Z,80.78
2023-01-17T18:10:35.955Z,81.45
2023-01-17T18:13:04.654Z,81.32
2023-01-17T18:15:30.989Z,81.43
2023-01-17T18:17:57.322Z,81.22
2023-01-17T18:20:26.318Z,81.42
2023-01-17T18:22:52.647Z,81.44
2023-01-17T18:25:21.264Z,81.09
2023-01-17T18:27:47.594Z,81.14
2023-01-17T18:30:13.933Z,81.53
2023-01-17T18:32:40.261Z,81.35
2023-01-17T18:35:06.613Z,81.46
2023-01-17T18:37:32.958Z,80.97
2023-01-17T18:39:59.308Z,81.22
2023-01-17T18:42:25.644Z,81.07
2023-01-17T18:44:51.977Z,80.95
2023-01-17T18:47:18.312Z,80.81
2023-01-17T18:49:44.851Z,81.19
2023-01-17T18:52:11.187Z,80.95
2023-01-17T18:54:37.520Z,81.05
2023-01-17T18:57:03.877Z,81.04
2023-01-17T18:59:30.221Z,81.48
2023-01-17T19:01:56.654Z,80.78
2023-01-17T19:04:23.278Z,80.93
2023-01-17T19:06:50.370Z,80.90
2023-01-17T19:09:16.831Z,81.00
2023-01-17T19:11:43.217Z,80.93
2023-01-17T19:14:09.540Z,80.99
2023-01-17T19:16:36.152Z,80.92
2023-01-17T19:19:02.655Z,81.38
2023-01-17T19:21:28.999Z,81.10
2023-01-17T19:23:55.592Z,81.03
2023-01-17T19:26:21.923Z,81.26
2023-01-17T19:28:48.446Z,80.78
2023-01-17T19:31:14.938Z,81.14
2023-01-17T19:33:41.323Z,81.12
2023-01-17T19:36:07.658Z,80.88
2023-01-17T19:38:34.002Z,80.88
2023-01-17T19:41:00.346Z,81.11
2023-01-17T19:43:26.702Z,81.19
2023-01-17T19:45:53.057Z,81.40
2023-01-17T19:48:19.405Z,81.38
2023-01-17T19:50:45.731Z,81.28
2023-01-17T19:53:12.067Z,81.64
2023-01-17T19:55:38.409Z,81.16
2023-01-17T19:58:04.754Z,81.29
2023-01-17T20:00:31.101Z,81.09
2023-01-17T20:02:57.625Z,81.33
2023-01-17T20:05:24.035Z,81.45
2023-01-17T20:07:50.601Z,81.08
2023-01-17T20:10:16.948Z,81.28
2023-01-17T20:12:43.285Z,81.14
2023-01-17T20:15:09.837Z,81.57
2023-01-17T20:17:36.167Z,80.93
2023-01-17T20:20:02.720Z,81.23
2023-01-17T20:22:29.057Z,81.43
2023-01-17T20:24:55.395Z,81.22
2023-01-17T20:27:21.744Z,80.91
2023-01-17T20:29:48.078Z,81.07
2023-01-17T20:32:14.418Z,80.87
2023-01-17T20:34:40.748Z,81.34
2023-01-17T20:37:07.085Z,81.09
2023-01-17T20:39:33.423Z,81.37
2023-01-17T20:41:59.977Z,81.09
2023-01-17T20:44:26.321Z,80.92
2023-01-17T20:46:52.661Z,81.27
2023-01-17T20:49:21.471Z,81.15
2023-01-17T20:51:47.811Z,81.16
2023-01-17T20:54:14.369Z,81.00
2023-01-17T20:56:40.699Z,80.94
2023-01-17T20:59:07.246Z,80.98
2023-01-17T21:01:33.880Z,81.57
2023-01-17T21:04:00.280Z,81.37
2023-01-17T21:06:26.817Z,81.14
2023-01-17T21:08:53.172Z,81.47
2023-01-17T21:11:19.712Z,81.12
2023-01-17T21:13:46.263Z,81.22
2023-01-17T21:16:12.869Z,81.37
2023-01-17T21:18:39.217Z,80.95
2023-01-17T21:21:05.563Z,81.30
2023-01-17T21:23:31.904Z,80.87
2023-01-17T21:25:58.238Z,81.36
2023-01-17T21:28:24.623Z,81.26
2023-01-17T21:30:50.997Z,80.98
2023-01-17T21:33:17.396Z,81.03
2023-01-17T21:35:43.722Z,80.81
2023-01-17T21:38:10.132Z,81.34
2023-01-17T21:40:36.477Z,81.50
2023-01-17T21:43:02.837Z,81.41
2023-01-17T21:45:29.167Z,81.20
2023-01-17T21:47:55.810Z,81.36
2023-01-17T21:50:32.740Z,81.52
2023-01-17T21:52:59.801Z,81.32
2023-01-17T21:55:26.141Z,81.12
2023-01-17T21:57:52.479Z,81.13
2023-01-17T22:00:18.825Z,81.35
2023-01-17T22:02:45.231Z,81.37
2023-01-17T22:05:11.610Z,81.31
2023-01-17T22:07:38.156Z,80.79
2023-01-17T22:10:04.496Z,80.68
2023-01-17T22:12:31.059Z,80.89
2023-01-17T22:14:57.407Z,81.39
2023-01-17T22:17:23.953Z,81.65
2023-01-17T22:19:50.303Z,81.36
2023-01-17T22:22:16.639Z,80.93
2023-01-17T22:24:42.991Z,81.38
2023-01-17T22:27:09.313Z,81.57
2023-01-17T22:29:35.635Z,81.26
2023-01-17T22:32:01.984Z,81.11
2023-01-17T22:34:28.556Z,81.64
2023-01-17T22:36:54.895Z,81.22
2023-01-17T22:39:21.239Z,81.33
2023-01-17T22:41:47.582Z,81.45
2023-01-17T22:44:13.917Z,81.17
2023-01-17T22:46:40.711Z,81.48
2023-01-17T22:49:07.085Z,81.02
2023-01-17T22:51:33.414Z,81.11
2023-01-17T22:53:59.763Z,81.64
2023-01-17T22:56:26.320Z,81.28
2023-01-17T22:58:52.668Z,81.83
2023-01-17T23:01:19.079Z,81.19
2023-01-17T23:03:45.493Z,81.41
2023-01-17T23:06:11.896Z,81.36
2023-01-17T23:08:38.215Z,81.54
2023-01-17T23:11:04.561Z,81.34
2023-01-17T23:13:30.902Z,80.99
2023-01-17T23:15:57.283Z,81.38
2023-01-17T23:18:23.846Z,81.49
2023-01-17T23:20:50.178Z,81.33
2023-01-17T23:23:16.541Z,81.10
2023-01-17T23:25:42.878Z,81.29
2023-01-17T23:28:09.638Z,81.50
2023-01-17T23:30:35.976Z,81.63
2023-01-17T23:33:02.528Z,81.23
2023-01-17T23:35:29.074Z,81.13
2023-01-17T23:37:55.449Z,81.32
2023-01-17T23:40:22.028Z,81.07
2023-01-17T23:42:48.382Z,81.81
2023-01-17T23:45:14.719Z,81.58
2023-01-17T23:47:41.055Z,81.53
2023-01-17T23:50:07.403Z,81.25
2023-01-17T23:52:33.755Z,81.15
2023-01-17T23:55:00.083Z,81.74
2023-01-17T23:57:26.447Z,81.74
2023-01-17T23:59:53.016Z,81.84
